Time;durP1;ratioP1;P1;durP2;ratioP2;P2;SDS_P1;SDS_P2;PMS_P1;PMS_P2;Temp;Humidity;BMP_temperature;BMP_pressure;BME280_temperature;BME280_humidity;BME280_pressure;Samples;Min_cycle;Max_cycle;Signal;HPM_P1;HPM_P2
2023/04/10 00:09:50;;;;;;;8.60;4.60;;;5.40;99.90;;;;;;20885638;28;19956;-77
2023/04/10 00:19:50;;;;;;;;;;;5.30;99.90;;;;;;20850451;28;20968;-77
2023/04/10 00:29:51;;;;;;;9.85;5.18;;;5.20;99.90;;;;;;20842231;28;19909;-77
2023/04/10 00:39:52;;;;;;;;;;;5.30;99.90;;;;;;20890438;28;20044;-77
2023/04/10 00:49:53;;;;;;;8.95;5.18;;;5.10;99.90;;;;;;20855813;28;19917;-77
2023/04/10 00:59:54;;;;;;;8.77;5.15;;;5.10;99.90;;;;;;20859179;28;20029;-77
2023/04/10 01:10:13;;;;;;;9.07;5.03;;;5.10;99.90;;;;;;20888596;28;20029;-76
2023/04/10 01:20:23;;;;;;;7.32;4.80;;;4.90;99.90;;;;;;20855285;28;20072;-77
2023/04/10 01:30:25;;;;;;;9.85;5.53;;;4.60;99.90;;;;;;20886735;28;20033;-77
2023/04/10 01:40:28;;;;;;;9.30;5.20;;;4.90;99.90;;;;;;20847991;28;20030;-77
2023/04/10 01:50:30;;;;;;;9.55;5.38;;;4.80;99.90;;;;;;20852059;28;20083;-77
2023/04/10 02:00:42;;;;;;;9.00;4.75;;;4.50;99.90;;;;;;20873002;28;20025;-76
2023/04/10 02:10:55;;;;;;;8.30;5.00;;;4.30;99.90;;;;;;20914565;28;20037;-76
2023/04/10 02:20:57;;;;;;;9.52;5.20;;;4.00;99.90;;;;;;20945944;28;20029;-77
2023/04/10 02:30:58;;;;;;;9.00;5.10;;;4.20;99.90;;;;;;20905578;28;20033;-77
2023/04/10 02:40:59;;;;;;;10.50;5.25;;;4.20;99.90;;;;;;20843138;28;20079;-77
2023/04/10 02:51:00;;;;;;;8.68;4.50;;;3.80;99.90;;;;;;20846206;28;20131;-77
2023/04/10 03:01:04;;;;;;;12.07;5.53;;;3.80;99.90;;;;;;20841498;28;20037;-77
2023/04/10 03:11:14;;;;;;;10.48;4.68;;;3.70;99.90;;;;;;20849233;28;20099;-77
2023/04/10 03:21:15;;;;;;;10.45;5.40;;;3.50;99.90;;;;;;20860749;28;20507;-76
2023/04/10 03:31:16;;;;;;;11.23;5.10;;;3.60;99.90;;;;;;20897396;28;20159;-76
2023/04/10 03:41:19;;;;;;;11.65;5.53;;;3.50;99.90;;;;;;20890555;28;20408;-76
2023/04/10 03:51:20;;;;;;;11.63;5.00;;;3.40;99.90;;;;;;20854115;28;20056;-76
2023/04/10 04:01:21;;;;;;;9.27;4.65;;;3.30;99.90;;;;;;20862788;28;20025;-77
2023/04/10 04:11:37;;;;;;;9.25;5.32;;;3.10;99.90;;;;;;20728207;22;20042;-75
2023/04/10 04:21:56;;;;;;;10.60;4.35;;;2.90;99.90;;;;;;20670638;28;20447;-77
2023/04/10 04:32:29;;;;;;;7.70;4.13;;;3.10;99.90;;;;;;20669807;28;20058;-77
2023/04/10 04:42:52;;;;;;;10.60;5.05;;;3.00;99.90;;;;;;20665691;28;20118;-78
2023/04/10 04:53:13;;;;;;;11.18;5.25;;;2.80;99.90;;;;;;20666530;28;20085;-76
2023/04/10 05:03:36;;;;;;;7.63;4.30;;;3.20;99.90;;;;;;20712059;28;20053;-77
2023/04/10 05:13:56;;;;;;;7.10;4.05;;;3.40;99.90;;;;;;20716580;28;20030;-76
2023/04/10 05:24:10;;;;;;;8.35;4.40;;;4.00;99.90;;;;;;20689808;28;20030;-76
2023/04/10 05:34:31;;;;;;;7.83;3.77;;;4.70;99.90;;;;;;20660648;28;20101;-76
2023/04/10 05:44:47;;;;;;;7.32;4.65;;;5.50;99.90;;;;;;20677366;28;20405;-76
2023/04/10 05:55:07;;;;;;;9.25;5.05;;;5.40;99.90;;;;;;20672111;28;20409;-77
2023/04/10 06:05:37;;;;;;;10.32;4.47;;;4.20;99.90;;;;;;20673658;28;20038;-77
2023/04/10 06:15:40;;;;;;;16.88;6.38;;;4.10;99.90;;;;;;20684515;28;20026;-77
2023/04/10 06:25:42;;;;;;;13.93;6.45;;;4.00;99.90;;;;;;20693375;28;20412;-76
2023/04/10 06:35:42;;;;;;;12.32;6.00;;;4.50;99.90;;;;;;20683221;28;20046;-77
2023/04/10 06:45:44;;;;;;;11.32;5.85;;;5.40;99.90;;;;;;20681380;28;20543;-77
2023/04/10 06:55:45;;;;;;;10.93;6.13;;;5.90;99.90;;;;;;20683201;28;20084;-78
2023/04/10 07:05:46;;;;;;;9.88;5.75;;;6.60;99.90;;;;;;20686560;28;20034;-77
2023/04/10 07:15:47;;;;;;;11.00;5.90;;;7.10;99.90;;;;;;20704236;28;20034;-78
2023/04/10 07:25:47;;;;;;;12.93;6.33;;;8.10;99.90;;;;;;20752659;28;20282;-77
2023/04/10 07:35:48;;;;;;;11.33;6.10;;;8.70;99.90;;;;;;20695056;28;20114;-77
2023/04/10 07:45:49;;;;;;;9.43;5.40;;;9.10;99.90;;;;;;20681964;28;20038;-79
2023/04/10 07:55:52;;;;;;;8.17;4.77;;;9.30;99.90;;;;;;20687996;28;20033;-78
2023/04/10 08:05:53;;;;;;;8.88;5.38;;;10.20;99.90;;;;;;20675400;28;20121;-78
2023/04/10 08:15:53;;;;;;;8.77;4.83;;;10.40;99.90;;;;;;20675207;28;20377;-78
2023/04/10 08:25:54;;;;;;;8.87;5.30;;;11.30;99.90;;;;;;20675406;28;20093;-78
2023/04/10 08:35:55;;;;;;;7.67;4.97;;;12.40;99.90;;;;;;20678431;28;20138;-78
2023/04/10 08:45:56;;;;;;;7.57;4.53;;;13.00;99.90;;;;;;20677252;28;20030;-78
2023/04/10 08:55:59;;;;;;;7.83;5.03;;;13.60;99.90;;;;;;20671011;28;20111;-78
2023/04/10 09:06:04;;;;;;;8.63;4.55;;;14.00;99.90;;;;;;20673349;28;20081;-77
2023/04/10 09:16:05;;;;;;;6.38;3.97;;;14.10;99.90;;;;;;20699171;28;20069;-77
2023/04/10 09:26:32;;;;;;;6.28;4.03;;;15.20;99.90;;;;;;20738260;28;20030;-79
2023/04/10 09:36:33;;;;;;;5.63;4.10;;;14.40;99.90;;;;;;20761952;28;20037;-79
2023/04/10 09:46:34;;;;;;;9.43;4.00;;;14.50;99.90;;;;;;20725089;28;20563;-78
2023/04/10 09:56:38;;;;;;;6.50;4.27;;;15.30;99.90;;;;;;20673199;28;20038;-78
2023/04/10 10:06:39;;;;;;;7.50;5.05;;;16.00;99.90;;;;;;20717095;23;20045;-82
2023/04/10 10:16:46;;;;;;;7.13;4.57;;;16.50;99.90;;;;;;20759519;28;20034;-81
2023/04/10 10:26:47;;;;;;;7.68;5.45;;;16.70;99.90;;;;;;20766652;28;20589;-80
2023/04/10 10:36:49;;;;;;;;;;;17.30;99.90;;;;;;20774473;28;20037;-79
2023/04/10 10:46:57;;;;;;;6.68;4.43;;;17.60;99.90;;;;;;20771494;28;20261;-78
2023/04/10 10:56:59;;;;;;;7.75;4.75;;;17.50;99.90;;;;;;20760213;28;20113;-77
2023/04/10 11:07:00;;;;;;;7.80;5.07;;;17.60;99.90;;;;;;20761577;28;20109;-78
2023/04/10 11:17:01;;;;;;;6.43;4.27;;;18.00;99.90;;;;;;20767065;28;20037;-77
2023/04/10 11:27:02;;;;;;;7.47;4.83;;;19.20;99.90;;;;;;20797274;28;20472;-77
2023/04/10 11:37:02;;;;;;;7.17;4.80;;;18.90;99.90;;;;;;20797171;28;20112;-78
2023/04/10 11:47:04;;;;;;;7.43;5.03;;;19.50;99.60;;;;;;20778368;28;20508;-78
2023/04/10 11:57:11;;;;;;;8.77;4.63;;;19.20;99.00;;;;;;20781166;28;20026;-79
2023/04/10 12:07:12;;;;;;;6.82;4.60;;;19.30;99.90;;;;;;20762243;28;21015;-79
2023/04/10 12:17:13;;;;;;;7.53;4.17;;;20.30;97.10;;;;;;20789397;28;20069;-79
2023/04/10 12:27:22;;;;;;;5.33;3.43;;;20.10;96.80;;;;;;20867972;28;20063;-79
2023/04/10 12:37:24;;;;;;;4.90;3.65;;;19.30;97.50;;;;;;20873602;28;20288;-79
2023/04/10 12:47:27;;;;;;;6.38;3.55;;;20.50;96.70;;;;;;20766017;28;20041;-79
2023/04/10 12:57:28;;;;;;;5.78;3.65;;;20.30;94.60;;;;;;20819989;28;20392;-82
2023/04/10 13:07:28;;;;;;;4.07;2.87;;;19.30;96.80;;;;;;20772499;28;20111;-80
2023/04/10 13:17:29;;;;;;;4.27;3.00;;;18.70;98.90;;;;;;20813882;28;20053;-81
2023/04/10 13:27:30;;;;;;;5.53;3.77;;;18.80;98.60;;;;;;20750588;28;20476;-81
2023/04/10 13:37:31;;;;;;;4.23;2.77;;;18.70;98.20;;;;;;20775919;28;20031;-82
2023/04/10 13:47:33;;;;;;;2.80;2.20;;;21.00;96.50;;;;;;20760629;28;20045;-81
2023/04/10 13:57:34;;;;;;;4.50;2.30;;;20.20;94.10;;;;;;20758681;28;20112;-80
2023/04/10 14:07:35;;;;;;;2.93;2.00;;;20.60;93.60;;;;;;20751956;28;20038;-79
2023/04/10 14:17:35;;;;;;;3.03;2.00;;;20.10;93.00;;;;;;20766044;28;20030;-80
2023/04/10 14:27:36;;;;;;;2.37;1.73;;;20.40;92.80;;;;;;20741997;28;20030;-79
2023/04/10 14:37:38;;;;;;;4.60;1.83;;;20.20;93.60;;;;;;20734322;28;20042;-80
2023/04/10 14:47:38;;;;;;;;;;;19.90;92.20;;;;;;20714467;28;20034;-78
2023/04/10 14:57:39;;;;;;;3.07;1.77;;;19.80;92.60;;;;;;20749618;28;19920;-80
2023/04/10 15:07:40;;;;;;;2.93;1.73;;;19.90;92.20;;;;;;20741364;28;20070;-79
2023/04/10 15:17:40;;;;;;;3.17;2.00;;;19.60;92.60;;;;;;20785544;28;20502;-80
2023/04/10 15:27:41;;;;;;;2.50;1.90;;;18.50;94.70;;;;;;20763240;28;20030;-80
2023/04/10 15:37:42;;;;;;;2.57;1.73;;;18.90;94.30;;;;;;20743093;28;20033;-79
2023/04/10 15:47:46;;;;;;;3.07;2.20;;;18.20;94.20;;;;;;20758783;28;20038;-80
2023/04/10 15:57:47;;;;;;;4.57;2.10;;;17.90;94.60;;;;;;20725362;28;20069;-78
2023/04/10 16:07:48;;;;;;;2.17;1.30;;;18.30;94.80;;;;;;20755937;23;20100;-77
2023/04/10 16:17:48;;;;;;;2.60;1.60;;;17.60;94.50;;;;;;20745915;28;20089;-79
2023/04/10 16:27:49;;;;;;;3.07;1.50;;;17.30;94.60;;;;;;20785362;28;20516;-79
2023/04/10 16:37:50;;;;;;;3.23;1.70;;;17.20;95.20;;;;;;20766758;28;20033;-79
2023/04/10 16:47:51;;;;;;;4.90;1.53;;;17.20;95.80;;;;;;20761469;28;20473;-78
2023/04/10 16:57:52;;;;;;;4.10;2.33;;;16.90;95.80;;;;;;20780237;28;20038;-79
2023/04/10 17:07:53;;;;;;;2.57;1.60;;;16.60;96.10;;;;;;20778620;28;20041;-79
2023/04/10 17:17:54;;;;;;;2.13;1.67;;;16.50;97.10;;;;;;20749306;28;20084;-79
2023/04/10 17:27:55;;;;;;;1.93;1.57;;;16.30;99.90;;;;;;20763154;28;20038;-79
2023/04/10 17:37:56;;;;;;;3.33;1.80;;;15.90;99.90;;;;;;20783929;28;20041;-77
2023/04/10 17:47:57;;;;;;;4.90;1.80;;;15.50;99.90;;;;;;20766621;28;20612;-79
2023/04/10 17:57:58;;;;;;;3.27;1.83;;;15.30;99.90;;;;;;20772471;28;20045;-78
2023/04/10 18:07:59;;;;;;;2.40;1.80;;;14.70;99.90;;;;;;20754219;28;20503;-78
2023/04/10 18:17:59;;;;;;;3.20;2.17;;;14.30;99.90;;;;;;20770836;28;20030;-79
2023/04/10 18:28:00;;;;;;;3.50;2.57;;;14.30;99.90;;;;;;20779137;28;20045;-78
2023/04/10 18:38:02;;;;;;;4.00;2.50;;;14.00;99.90;;;;;;20752824;28;20034;-79
2023/04/10 18:48:02;;;;;;;4.90;3.00;;;13.90;99.90;;;;;;20764318;28;20038;-78
2023/04/10 18:58:06;;;;;;;4.57;3.10;;;13.40;99.90;;;;;;20742167;28;20088;-78
2023/04/10 19:08:07;;;;;;;4.38;3.03;;;13.30;99.90;;;;;;20761993;28;20030;-78
2023/04/10 19:18:08;;;;;;;8.00;3.00;;;13.20;99.90;;;;;;20762253;28;20045;-77
2023/04/10 19:28:09;;;;;;;7.13;3.40;;;13.00;99.90;;;;;;20773938;28;20061;-76
2023/04/10 19:38:10;;;;;;;5.87;4.27;;;13.10;99.90;;;;;;20759651;28;20056;-76
2023/04/10 19:48:11;;;;;;;6.77;4.07;;;13.50;99.90;;;;;;20745290;28;20030;-77
2023/04/10 19:58:12;;;;;;;8.57;4.10;;;13.60;99.90;;;;;;20756678;28;20546;-79
2023/04/10 20:08:12;;;;;;;3.07;2.03;;;13.70;99.90;;;;;;20768579;28;20101;-77
2023/04/10 20:18:16;;;;;;;4.80;1.63;;;13.70;99.90;;;;;;20775024;28;20026;-77
2023/04/10 20:28:17;;;;;;;5.07;1.80;;;13.80;99.90;;;;;;20778382;28;20033;-78
2023/04/10 20:38:18;;;;;;;3.30;1.60;;;13.60;99.90;;;;;;20783634;28;20037;-78
2023/04/10 20:48:19;;;;;;;1.90;1.70;;;13.60;99.90;;;;;;20788946;28;20030;-77
2023/04/10 20:58:20;;;;;;;2.53;1.63;;;13.50;99.90;;;;;;20791906;28;20044;-78
2023/04/10 21:08:21;;;;;;;;;;;13.40;99.90;;;;;;20789638;28;20026;-78
2023/04/10 21:18:22;;;;;;;3.63;1.65;;;13.20;99.90;;;;;;20777445;28;19956;-78
2023/04/10 21:28:23;;;;;;;3.00;1.47;;;12.90;99.90;;;;;;20798383;28;20032;-78
2023/04/10 21:38:25;;;;;;;5.57;1.70;;;12.90;99.90;;;;;;20766702;28;20037;-80
2023/04/10 21:48:26;;;;;;;3.25;1.50;;;12.50;99.90;;;;;;20764846;28;20022;-80
2023/04/10 21:58:27;;;;;;;1.90;1.23;;;12.20;99.90;;;;;;20766436;28;20116;-79
2023/04/10 22:08:28;;;;;;;2.60;1.47;;;12.10;99.90;;;;;;20763571;22;20070;-80
2023/04/10 22:18:31;;;;;;;3.40;1.43;;;12.00;99.90;;;;;;20687111;28;20047;-79
2023/04/10 22:28:32;;;;;;;3.42;1.50;;;12.00;99.90;;;;;;20727449;28;20442;-80
2023/04/10 22:38:33;;;;;;;2.53;1.50;;;12.00;99.90;;;;;;20724423;28;20031;-77
2023/04/10 22:48:34;;;;;;;5.93;2.37;;;11.50;99.90;;;;;;20724499;28;20038;-79
2023/04/10 22:58:39;;;;;;;2.73;1.70;;;11.40;99.90;;;;;;20720350;28;20528;-78
2023/04/10 23:08:40;;;;;;;5.63;2.03;;;11.30;99.90;;;;;;20691960;28;20041;-78
2023/04/10 23:18:40;;;;;;;4.77;1.50;;;11.30;99.90;;;;;;20713547;28;20089;-78
2023/04/10 23:28:41;;;;;;;3.33;1.67;;;11.10;99.90;;;;;;20714946;28;20026;-78
2023/04/10 23:38:42;;;;;;;5.20;2.27;;;11.00;99.90;;;;;;20697957;28;20030;-79
2023/04/10 23:48:43;;;;;;;3.97;1.90;;;10.80;99.90;;;;;;20710030;28;20042;-78
2023/04/10 23:58:43;;;;;;;4.13;1.97;;;11.00;99.90;;;;;;20720624;28;20061;-79
